Time;durP1;ratioP1;P1;durP2;ratioP2;P2;SDS_P1;SDS_P2;PMS_P1;PMS_P2;Temp;Humidity;BMP_temperature;BMP_pressure;BME280_temperature;BME280_humidity;BME280_pressure;Samples;Min_cycle;Max_cycle;Signal;HPM_P1;HPM_P2
2022/10/20 00:01:07;;;;;;;32.13;16.60;;;;;;;-144.40;100.00;60209.53;4947312;29;20039;-96
2022/10/20 00:03:33;;;;;;;27.30;15.55;;;;;;;-144.40;100.00;60209.53;4929058;29;20034;-96
2022/10/20 00:06:09;;;;;;;31.02;16.05;;;;;;;-144.40;100.00;60209.53;4924747;29;20063;-95
2022/10/20 00:08:34;;;;;;;30.65;14.00;;;;;;;-144.40;100.00;60209.53;4926979;29;20032;-95
2022/10/20 00:11:00;;;;;;;29.42;15.32;;;;;;;-144.40;100.00;60209.53;4945362;29;20028;-95
2022/10/20 00:13:25;;;;;;;32.15;16.10;;;;;;;-144.40;100.00;60209.53;4932853;29;20130;-95
2022/10/20 00:15:53;;;;;;;29.17;15.48;;;;;;;-144.40;100.00;60209.53;4965737;29;20035;-95
2022/10/20 00:18:20;;;;;;;27.20;15.25;;;;;;;-144.40;100.00;60209.53;4946797;29;20478;-95
2022/10/20 00:20:46;;;;;;;24.05;14.20;;;;;;;-144.40;100.00;60209.53;4960807;29;20035;-95
2022/10/20 00:23:11;;;;;;;25.05;13.15;;;;;;;-144.40;100.00;60209.53;4945716;29;20278;-95
2022/10/20 00:25:37;;;;;;;34.13;16.63;;;;;;;-144.40;100.00;60209.53;4941681;29;20027;-96
2022/10/20 00:28:03;;;;;;;27.98;15.60;;;;;;;-144.40;100.00;60209.53;4954212;28;20483;-95
2022/10/20 00:30:28;;;;;;;31.98;16.35;;;;;;;-144.40;100.00;60209.53;4942707;29;20032;-96
2022/10/20 00:32:54;;;;;;;31.88;15.88;;;;;;;-144.40;100.00;60209.53;4933368;29;20032;-96
2022/10/20 00:35:19;;;;;;;28.27;14.88;;;;;;;-144.40;100.00;60209.53;4940321;29;20066;-96
2022/10/20 00:37:45;;;;;;;28.63;14.98;;;;;;;-144.40;100.00;60209.53;4941180;29;20039;-95
2022/10/20 00:40:11;;;;;;;27.20;15.88;;;;;;;-144.40;100.00;60209.53;4941088;29;20442;-94
2022/10/20 00:42:37;;;;;;;38.63;15.40;;;;;;;-144.40;100.00;60209.53;4926021;29;20028;-95
2022/10/20 00:45:10;;;;;;;38.25;16.02;;;;;;;-144.40;100.00;60209.53;4923776;29;20505;-95
2022/10/20 00:47:50;;;;;;;30.42;14.98;;;;;;;-144.40;100.00;60209.53;4942769;29;20087;-96
2022/10/20 00:50:23;;;;;;;25.83;15.98;;;;;;;-144.40;100.00;60209.53;4936914;29;20111;-96
2022/10/20 00:52:51;;;;;;;30.88;15.18;;;;;;;-144.40;100.00;60209.53;4935794;29;20091;-96
2022/10/20 00:55:23;;;;;;;41.88;18.27;;;;;;;-144.40;100.00;60209.53;4937822;29;20016;-95
2022/10/20 00:57:50;;;;;;;25.77;14.18;;;;;;;-144.40;100.00;60209.53;4936691;29;20032;-96
2022/10/20 01:00:16;;;;;;;23.70;11.38;;;;;;;-144.40;100.00;60209.53;4936030;29;20028;-96
2022/10/20 01:02:43;;;;;;;23.38;10.88;;;;;;;-144.40;100.00;60209.53;4919382;29;20038;-96
2022/10/20 01:05:09;;;;;;;30.13;14.82;;;;;;;-144.40;100.00;60209.53;4935374;29;20028;-96
2022/10/20 01:07:35;;;;;;;21.38;12.45;;;;;;;-144.40;100.00;60209.53;4934489;29;20036;-96
2022/10/20 01:10:03;;;;;;;25.30;13.27;;;;;;;-144.40;100.00;60209.53;4935065;29;20039;-96
2022/10/20 01:12:51;;;;;;;25.30;12.98;;;;;;;-144.40;100.00;60209.53;4918101;29;20060;-95
2022/10/20 01:15:37;;;;;;;18.08;10.73;;;;;;;-144.40;100.00;60209.53;4927457;29;20047;-95
2022/10/20 01:18:18;;;;;;;15.43;11.07;;;;;;;-144.40;100.00;60209.53;4940589;29;20050;-96
2022/10/20 01:20:50;;;;;;;27.20;12.63;;;;;;;-144.40;100.00;60209.53;4940640;29;20028;-95
2022/10/20 01:23:34;;;;;;;26.95;12.98;;;;;;;-144.40;100.00;60209.53;4918354;29;20279;-96
2022/10/20 01:26:09;;;;;;;18.98;11.32;;;;;;;-144.40;100.00;60209.53;4920824;29;20037;-96
2022/10/20 01:28:44;;;;;;;18.35;9.68;;;;;;;-144.40;100.00;60209.53;4917376;29;20145;-96
2022/10/20 01:31:40;;;;;;;19.40;11.75;;;;;;;-144.40;100.00;60209.53;4918235;29;20051;-96
2022/10/20 01:34:10;;;;;;;16.85;9.18;;;;;;;-144.40;100.00;60209.53;4933714;29;20111;-96
2022/10/20 01:36:38;;;;;;;14.57;9.82;;;;;;;-144.40;100.00;60209.53;4934215;29;20036;-96
2022/10/20 01:39:13;;;;;;;19.48;9.40;;;;;;;-144.40;100.00;60209.53;4933135;29;20067;-96
2022/10/20 01:41:51;;;;;;;24.60;11.27;;;;;;;-144.40;100.00;60209.53;4933184;29;20028;-96
2022/10/20 01:44:19;;;;;;;16.88;9.32;;;;;;;-144.40;100.00;60209.53;4922629;29;20534;-96
2022/10/20 01:46:45;;;;;;;22.90;10.82;;;;;;;-144.40;100.00;60209.53;4917411;29;20127;-96
2022/10/20 01:49:13;;;;;;;23.00;10.02;;;;;;;-144.40;100.00;60209.53;4933230;29;20028;-96
2022/10/20 01:51:39;;;;;;;17.25;9.07;;;;;;;-144.40;100.00;60209.53;4917092;29;20080;-96
2022/10/20 01:54:05;;;;;;;16.30;8.02;;;;;;;-144.40;100.00;60209.53;4933421;29;20024;-96
2022/10/20 01:56:50;;;;;;;9.25;7.43;;;;;;;-144.40;100.00;60209.53;4933188;29;20490;-96
2022/10/20 01:59:48;;;;;;;9.30;5.88;;;;;;;-144.40;100.00;60209.53;4931771;29;20386;-96
2022/10/20 02:02:24;;;;;;;45.75;13.05;;;;;;;-144.40;100.00;60209.53;4925537;29;20104;-95
2022/10/20 02:04:53;;;;;;;17.35;9.23;;;;;;;-144.40;100.00;60209.53;4928100;29;20431;-96
2022/10/20 02:07:26;;;;;;;18.77;8.43;;;;;;;-144.40;100.00;60209.53;4932923;29;20479;-96
2022/10/20 02:09:57;;;;;;;23.58;9.23;;;;;;;-144.40;100.00;60209.53;4916819;29;20032;-96
2022/10/20 02:12:31;;;;;;;13.38;7.03;;;;;;;-144.40;100.00;60209.53;4932296;29;20028;-96
2022/10/20 02:14:58;;;;;;;13.63;6.55;;;;;;;-144.40;100.00;60209.53;4921886;29;20054;-96
2022/10/20 02:17:24;;;;;;;13.80;8.80;;;;;;;-144.40;100.00;60209.53;4932837;29;20465;-96
2022/10/20 02:19:52;;;;;;;31.08;9.68;;;;;;;-144.40;100.00;60209.53;4932845;29;20119;-96
2022/10/20 02:22:19;;;;;;;21.13;9.15;;;;;;;-144.40;100.00;60209.53;4929250;29;20052;-95
2022/10/20 02:24:45;;;;;;;21.20;8.05;;;;;;;-144.40;100.00;60209.53;4932485;29;20028;-96
2022/10/20 02:27:22;;;;;;;19.60;8.52;;;;;;;-144.40;100.00;60209.53;4933214;29;20111;-96
2022/10/20 02:29:59;;;;;;;24.92;8.70;;;;;;;-144.40;100.00;60209.53;4919303;29;20028;-96
2022/10/20 02:32:26;;;;;;;20.83;7.70;;;;;;;-144.40;100.00;60209.53;4932491;29;20024;-95
2022/10/20 02:34:51;;;;;;;27.98;10.32;;;;;;;-144.40;100.00;60209.53;4933054;29;20032;-96
2022/10/20 02:37:17;;;;;;;18.13;8.63;;;;;;;-144.40;100.00;60209.53;4932546;29;20036;-96
2022/10/20 02:39:42;;;;;;;20.52;9.05;;;;;;;-144.40;100.00;60209.53;4935647;29;20039;-96
2022/10/20 02:42:08;;;;;;;18.35;7.88;;;;;;;-144.40;100.00;60209.53;4932404;29;20032;-96
2022/10/20 02:44:34;;;;;;;13.75;6.40;;;;;;;-144.40;100.00;60209.53;4933462;29;20031;-96
2022/10/20 02:46:59;;;;;;;15.95;7.40;;;;;;;-144.40;100.00;60209.53;4932498;29;20032;-96
2022/10/20 02:49:26;;;;;;;10.35;5.63;;;;;;;-144.40;100.00;60209.53;4932919;29;20036;-96
2022/10/20 02:51:51;;;;;;;12.13;6.40;;;;;;;-144.40;100.00;60209.53;4935013;29;20454;-95
2022/10/20 02:54:17;;;;;;;13.23;6.53;;;;;;;-144.40;100.00;60209.53;4922905;29;20112;-96
2022/10/20 02:56:43;;;;;;;13.20;6.22;;;;;;;-144.40;100.00;60209.53;4933011;29;20032;-96
2022/10/20 02:59:13;;;;;;;9.15;5.30;;;;;;;-144.40;100.00;60209.53;4921659;29;20111;-96
2022/10/20 03:01:40;;;;;;;11.52;5.25;;;;;;;-144.40;100.00;60209.53;4934063;29;20028;-96
2022/10/20 03:04:05;;;;;;;8.18;4.75;;;;;;;-144.40;100.00;60209.53;4936347;29;20036;-96
2022/10/20 03:06:31;;;;;;;7.60;4.63;;;;;;;-144.40;100.00;60209.53;4937901;29;20052;-96
2022/10/20 03:08:56;;;;;;;14.38;6.32;;;;;;;-144.40;100.00;60209.53;4937067;29;20032;-96
2022/10/20 03:11:22;;;;;;;17.08;6.28;;;;;;;-144.40;100.00;60209.53;4934614;29;20024;-95
2022/10/20 03:13:48;;;;;;;12.95;5.32;;;;;;;-144.40;100.00;60209.53;4937449;29;20024;-96
2022/10/20 03:16:13;;;;;;;15.52;6.68;;;;;;;-144.40;100.00;60209.53;4934225;29;20131;-96
2022/10/20 03:18:39;;;;;;;18.98;6.50;;;;;;;-144.40;100.00;60209.53;4933221;29;20028;-96
2022/10/20 03:21:04;;;;;;;20.38;6.93;;;;;;;-144.40;100.00;60209.53;4934477;29;20028;-96
2022/10/20 03:23:30;;;;;;;15.95;6.45;;;;;;;-144.40;100.00;60209.53;4942901;29;20525;-96
2022/10/20 03:26:04;;;;;;;14.18;6.20;;;;;;;-144.40;100.00;60209.53;4939281;29;20035;-96
2022/10/20 03:28:30;;;;;;;16.77;5.90;;;;;;;-144.40;100.00;60209.53;4935422;29;20039;-96
2022/10/20 03:30:58;;;;;;;12.32;5.72;;;;;;;-144.40;100.00;60209.53;4942014;29;20028;-96
2022/10/20 03:33:24;;;;;;;12.30;5.05;;;;;;;-144.40;100.00;60209.53;4928457;28;20060;-96
2022/10/20 03:35:50;;;;;;;9.70;4.40;;;;;;;-144.40;100.00;60209.53;4933179;29;20036;-96
2022/10/20 03:38:15;;;;;;;9.15;3.92;;;;;;;-144.40;100.00;60209.53;4917806;29;20047;-96
2022/10/20 03:40:41;;;;;;;7.80;3.97;;;;;;;-144.40;100.00;60209.53;4933011;29;20032;-96
2022/10/20 03:43:07;;;;;;;11.38;4.63;;;;;;;-144.40;100.00;60209.53;4933247;29;20017;-96
2022/10/20 03:45:32;;;;;;;8.35;4.30;;;;;;;-144.40;100.00;60209.53;4932309;29;20036;-96
2022/10/20 03:47:58;;;;;;;5.50;4.15;;;;;;;-144.40;100.00;60209.53;4932787;29;20033;-96
2022/10/20 03:50:23;;;;;;;6.50;4.00;;;;;;;-144.40;100.00;60209.53;4932464;29;20057;-96
2022/10/20 03:52:50;;;;;;;16.42;5.57;;;;;;;-144.40;100.00;60209.53;4933406;29;20045;-95
2022/10/20 03:55:17;;;;;;;13.52;5.68;;;;;;;-144.40;100.00;60209.53;4931593;29;20091;-96
2022/10/20 03:57:42;;;;;;;14.27;5.57;;;;;;;-144.40;100.00;60209.53;4932174;29;20039;-96
2022/10/20 04:00:09;;;;;;;15.60;6.68;;;;;;;-144.40;100.00;60209.53;4931876;29;20028;-96
2022/10/20 04:02:41;;;;;;;14.00;5.97;;;;;;;-144.40;100.00;60209.53;4931731;29;20060;-95
2022/10/20 04:05:06;;;;;;;;;;;;;;;-144.40;100.00;60209.53;4931748;29;20038;-95
2022/10/20 04:07:32;;;;;;;15.23;5.80;;;;;;;-144.40;100.00;60209.53;4931272;29;20009;-94
2022/10/20 04:10:00;;;;;;;8.32;4.82;;;;;;;-144.40;100.00;60209.53;4930969;29;20131;-94
2022/10/20 04:12:27;;;;;;;9.88;5.55;;;;;;;-144.40;100.00;60209.53;4931372;29;20423;-96
2022/10/20 04:14:53;;;;;;;13.60;5.47;;;;;;;-144.40;100.00;60209.53;4931727;29;20049;-95
2022/10/20 04:17:19;;;;;;;11.20;5.07;;;;;;;-144.40;100.00;60209.53;4931278;29;20480;-96
2022/10/20 04:19:45;;;;;;;15.23;5.80;;;;;;;-144.40;100.00;60209.53;4931179;29;20040;-96
2022/10/20 04:22:10;;;;;;;9.57;4.43;;;;;;;-144.40;100.00;60209.53;4931707;29;20033;-96
2022/10/20 04:24:36;;;;;;;6.82;3.65;;;;;;;-144.40;100.00;60209.53;4933699;29;20550;-96
2022/10/20 04:27:02;;;;;;;7.63;4.00;;;;;;;-144.40;100.00;60209.53;4934065;29;20513;-96
2022/10/20 04:29:28;;;;;;;9.95;4.65;;;;;;;-144.40;100.00;60209.53;4934815;29;20590;-96
2022/10/20 04:31:53;;;;;;;10.38;5.18;;;;;;;-144.40;100.00;60209.53;4934853;29;20056;-96
2022/10/20 04:34:19;;;;;;;6.50;4.05;;;;;;;-144.40;100.00;60209.53;4934655;29;20383;-95
2022/10/20 04:36:44;;;;;;;8.02;4.55;;;;;;;-144.40;100.00;60209.53;4934507;29;20724;-96
2022/10/20 04:39:10;;;;;;;11.60;4.43;;;;;;;-144.40;100.00;60209.53;4934936;29;20043;-96
2022/10/20 04:41:35;;;;;;;8.57;4.40;;;;;;;-144.40;100.00;60209.53;4918229;29;20440;-95
2022/10/20 04:44:01;;;;;;;8.85;3.97;;;;;;;-144.40;100.00;60209.53;4934727;29;20028;-95
2022/10/20 04:46:27;;;;;;;14.07;4.93;;;;;;;-144.40;100.00;60209.53;4933812;29;20090;-96
2022/10/20 04:48:52;;;;;;;14.88;5.38;;;;;;;-144.40;100.00;60209.53;4934730;29;20505;-95
2022/10/20 04:51:19;;;;;;;10.68;5.90;;;;;;;-144.40;100.00;60209.53;4934112;29;20526;-94
2022/10/20 04:53:45;;;;;;;12.82;5.90;;;;;;;-144.40;100.00;60209.53;4933917;29;20394;-93
2022/10/20 04:56:18;;;;;;;14.20;6.00;;;;;;;-144.40;100.00;60209.53;4932562;29;20119;-94
2022/10/20 04:58:55;;;;;;;14.80;5.57;;;;;;;-144.40;100.00;60209.53;4933620;29;20039;-94
2022/10/20 05:01:22;;;;;;;14.05;5.88;;;;;;;-144.40;100.00;60209.53;4933266;29;20383;-93
2022/10/20 05:03:48;;;;;;;20.42;6.53;;;;;;;-144.40;100.00;60209.53;4933463;29;20040;-93
2022/10/20 05:06:19;;;;;;;19.15;7.20;;;;;;;-144.40;100.00;60209.53;4933287;29;21185;-92
2022/10/20 05:08:47;;;;;;;21.40;6.55;;;;;;;-144.40;100.00;60209.53;4933457;29;20668;-94
2022/10/20 05:11:14;;;;;;;12.20;5.57;;;;;;;-144.40;100.00;60209.53;4932614;29;20036;-93
2022/10/20 05:13:41;;;;;;;12.32;5.22;;;;;;;-144.40;100.00;60209.53;4919496;29;20036;-94
2022/10/20 05:16:08;;;;;;;15.68;5.65;;;;;;;-144.40;100.00;60209.53;4934013;29;20024;-94
2022/10/20 05:18:34;;;;;;;10.15;5.13;;;;;;;-144.40;100.00;60209.53;4934289;29;20483;-96
2022/10/20 05:21:11;;;;;;;16.38;5.75;;;;;;;-144.40;100.00;60209.53;4935115;29;20096;-95
2022/10/20 05:23:38;;;;;;;12.20;5.53;;;;;;;-144.40;100.00;60209.53;4934321;29;20032;-95
2022/10/20 05:26:13;;;;;;;11.38;5.25;;;;;;;-144.40;100.00;60209.53;4933919;29;20036;-95
2022/10/20 05:28:42;;;;;;;14.40;5.82;;;;;;;-144.40;100.00;60209.53;4934330;29;20032;-94
2022/10/20 05:31:08;;;;;;;18.70;6.78;;;;;;;-144.40;100.00;60209.53;4918157;29;20028;-95
2022/10/20 05:33:34;;;;;;;18.73;5.75;;;;;;;-144.40;100.00;60209.53;4934249;29;20382;-94
2022/10/20 05:36:06;;;;;;;18.38;6.78;;;;;;;-144.40;100.00;60209.53;4918121;29;20040;-95
2022/10/20 05:38:31;;;;;;;16.05;5.25;;;;;;;-144.40;100.00;60209.53;4933195;29;20398;-95
2022/10/20 05:41:24;;;;;;;17.08;5.10;;;;;;;-144.40;100.00;60209.53;4934582;29;20059;-94
2022/10/20 05:43:52;;;;;;;14.32;3.97;;;;;;;-144.40;100.00;60209.53;4917748;29;20040;-95
2022/10/20 05:46:18;;;;;;;24.58;5.13;;;;;;;-144.40;100.00;60209.53;4918518;29;20491;-95
2022/10/20 05:48:45;;;;;;;20.55;4.75;;;;;;;-144.40;100.00;60209.53;4934458;29;20139;-94
2022/10/20 05:51:23;;;;;;;21.73;4.80;;;;;;;-144.40;100.00;60209.53;4934343;29;20034;-95
2022/10/20 05:53:49;;;;;;;12.38;3.47;;;;;;;-144.40;100.00;60209.53;4934088;29;20024;-95
2022/10/20 05:56:18;;;;;;;27.20;5.90;;;;;;;-144.40;100.00;60209.53;4933930;29;20035;-94
2022/10/20 05:58:44;;;;;;;15.20;3.85;;;;;;;-144.40;100.00;60209.53;4933601;29;20119;-95
2022/10/20 06:01:16;;;;;;;13.82;3.83;;;;;;;-144.40;100.00;60209.53;4932907;29;20056;-95
2022/10/20 06:03:45;;;;;;;11.63;3.83;;;;;;;-144.40;100.00;60209.53;4917360;29;20051;-94
2022/10/20 06:06:11;;;;;;;14.00;3.60;;;;;;;-144.40;100.00;60209.53;4917627;29;20487;-93
2022/10/20 06:08:36;;;;;;;16.73;3.92;;;;;;;-144.40;100.00;60209.53;4915730;29;20088;-92
2022/10/20 06:11:04;;;;;;;14.52;3.83;;;;;;;-144.40;100.00;60209.53;4916945;29;20099;-92
2022/10/20 06:13:31;;;;;;;16.98;4.97;;;;;;;-144.40;100.00;60209.53;4931636;29;20032;-93
2022/10/20 06:16:18;;;;;;;13.32;3.38;;;;;;;-144.40;100.00;60209.53;4931845;29;20032;-92
2022/10/20 06:18:44;;;;;;;17.10;3.80;;;;;;;-144.40;100.00;60209.53;4932192;29;20130;-93
2022/10/20 06:21:18;;;;;;;19.85;3.47;;;;;;;-144.40;100.00;60209.53;4920492;29;20067;-96
2022/10/20 06:23:44;;;;;;;13.18;3.63;;;;;;;-144.40;100.00;60209.53;5064158;23;20143;-94
2022/10/20 06:26:12;;;;;;;21.60;4.10;;;;;;;-144.40;100.00;60209.53;4952574;29;20074;-94
2022/10/20 06:28:39;;;;;;;9.85;3.03;;;;;;;-144.40;100.00;60209.53;4936936;29;20034;-95
2022/10/20 06:31:13;;;;;;;8.70;2.80;;;;;;;-144.40;100.00;60209.53;4936445;29;20020;-94
2022/10/20 06:33:39;;;;;;;6.85;2.20;;;;;;;-144.40;100.00;60209.53;4933346;29;20024;-94
2022/10/20 06:36:05;;;;;;;5.35;1.90;;;;;;;-144.40;100.00;60209.53;4917480;29;20028;-94
2022/10/20 06:38:31;;;;;;;5.90;2.13;;;;;;;-144.40;100.00;60209.53;4916223;29;20047;-96
2022/10/20 06:41:00;;;;;;;7.82;2.05;;;;;;;-144.40;100.00;60209.53;4931619;29;20028;-93
2022/10/20 06:43:26;;;;;;;12.52;2.92;;;;;;;-144.40;100.00;60209.53;4934261;29;20036;-94
2022/10/20 06:46:13;;;;;;;9.40;2.40;;;;;;;-144.40;100.00;60209.53;4932433;29;20036;-95
2022/10/20 06:48:39;;;;;;;9.13;2.20;;;;;;;-144.40;100.00;60209.53;4932521;29;20388;-93
2022/10/20 06:51:13;;;;;;;7.45;2.40;;;;;;;-144.40;100.00;60209.53;4916922;29;20096;-93
2022/10/20 06:53:38;;;;;;;7.93;2.30;;;;;;;-144.40;100.00;60209.53;4916061;29;20074;-93
2022/10/20 06:56:31;;;;;;;6.28;2.33;;;;;;;-144.40;100.00;60209.53;4915899;29;20048;-93
2022/10/20 06:58:58;;;;;;;10.07;3.17;;;;;;;-144.40;100.00;60209.53;4912563;29;20124;-95
2022/10/20 07:01:27;;;;;;;6.25;2.42;;;;;;;-144.40;100.00;60209.53;4916538;29;20032;-93
2022/10/20 07:04:01;;;;;;;8.90;2.20;;;;;;;-144.40;100.00;60209.53;4932521;29;20051;-92
2022/10/20 07:06:43;;;;;;;6.82;1.90;;;;;;;-144.40;100.00;60209.53;4920343;29;20091;-92
2022/10/20 07:09:15;;;;;;;7.80;2.00;;;;;;;-144.40;100.00;60209.53;4915013;29;20024;-94
2022/10/20 07:11:41;;;;;;;;;;;;;;;-144.40;100.00;60209.53;4934742;29;20020;-93
2022/10/20 07:14:06;;;;;;;10.13;2.22;;;;;;;-144.40;100.00;60209.53;4932917;29;19925;-92
2022/10/20 07:16:33;;;;;;;5.25;1.83;;;;;;;-144.40;100.00;60209.53;4915478;29;20046;-91
2022/10/20 07:19:00;;;;;;;5.35;1.33;;;;;;;-144.40;100.00;60209.53;4916835;29;20027;-91
2022/10/20 07:21:27;;;;;;;7.47;1.40;;;;;;;-144.40;100.00;60209.53;4916692;29;20026;-90
2022/10/20 07:23:56;;;;;;;3.55;1.35;;;;;;;-144.40;100.00;60209.53;4930467;29;20406;-91
2022/10/20 07:26:28;;;;;;;5.03;1.67;;;;;;;-144.40;100.00;60209.53;4932027;29;20028;-92
2022/10/20 07:28:57;;;;;;;4.32;1.55;;;;;;;-144.40;100.00;60209.53;4931550;29;20119;-91
2022/10/20 07:31:24;;;;;;;7.35;1.77;;;;;;;-144.40;100.00;60209.53;4916421;29;20502;-92
2022/10/20 07:33:50;;;;;;;7.72;1.88;;;;;;;-144.40;100.00;60209.53;4916416;29;20028;-92
2022/10/20 07:36:23;;;;;;;5.25;1.65;;;;;;;-144.40;100.00;60209.53;4916676;29;20028;-92
2022/10/20 07:38:50;;;;;;;6.05;1.58;;;;;;;-144.40;100.00;60209.53;4915968;29;20032;-91
2022/10/20 07:41:17;;;;;;;8.43;1.63;;;;;;;-144.40;100.00;60209.53;4915977;29;20036;-91
2022/10/20 07:43:42;;;;;;;5.25;1.65;;;;;;;-144.40;100.00;60209.53;4918300;29;20024;-91
2022/10/20 07:46:09;;;;;;;9.00;1.95;;;;;;;-144.40;100.00;60209.53;4919001;29;20036;-92
2022/10/20 07:48:34;;;;;;;8.05;1.50;;;;;;;-144.40;100.00;60209.53;4931963;29;20044;-91
2022/10/20 07:51:31;;;;;;;5.15;1.58;;;;;;;-144.40;100.00;60209.53;4919102;29;20032;-92
2022/10/20 07:54:00;;;;;;;4.35;0.90;;;;;;;-144.40;100.00;60209.53;4913789;29;20134;-93
2022/10/20 07:56:31;;;;;;;4.40;1.33;;;;;;;-144.40;100.00;60209.53;4913513;29;20503;-92
2022/10/20 07:58:58;;;;;;;3.88;1.05;;;;;;;-144.40;100.00;60209.53;4902601;29;20033;-92
2022/10/20 08:01:23;;;;;;;3.67;1.38;;;;;;;-144.40;100.00;60209.53;4902782;29;20028;-92
2022/10/20 08:03:49;;;;;;;6.10;2.20;;;;;;;-144.40;100.00;60209.53;4902432;29;20119;-92
2022/10/20 08:06:14;;;;;;;4.15;1.58;;;;;;;-144.40;100.00;60209.53;4918826;29;20479;-93
2022/10/20 08:08:40;;;;;;;5.05;2.42;;;;;;;-144.40;100.00;60209.53;4942333;28;20027;-92
2022/10/20 08:11:06;;;;;;;6.63;1.90;;;;;;;-144.40;100.00;60209.53;4923985;29;20489;-92
2022/10/20 08:13:31;;;;;;;5.25;1.52;;;;;;;-144.40;100.00;60209.53;4921219;29;20039;-90
2022/10/20 08:15:57;;;;;;;2.88;1.15;;;;;;;-144.40;100.00;60209.53;4922627;29;20418;-93
2022/10/20 08:18:23;;;;;;;3.03;1.08;;;;;;;-144.40;100.00;60209.53;4921920;29;20035;-91
2022/10/20 08:20:48;;;;;;;2.92;1.02;;;;;;;-144.40;100.00;60209.53;4921021;29;20499;-92
2022/10/20 08:23:15;;;;;;;3.42;1.15;;;;;;;-144.40;100.00;60209.53;4936746;29;20031;-93
2022/10/20 08:25:41;;;;;;;2.33;0.80;;;;;;;-144.40;100.00;60209.53;4920519;29;20036;-92
2022/10/20 08:28:07;;;;;;;5.55;1.17;;;;;;;-144.40;100.00;60209.53;4937382;29;20031;-93
2022/10/20 08:30:33;;;;;;;5.35;1.60;;;;;;;-144.40;100.00;60209.53;4940466;29;20042;-91
2022/10/20 08:32:59;;;;;;;4.60;1.58;;;;;;;-144.40;100.00;60209.53;4955368;29;20019;-90
2022/10/20 08:35:24;;;;;;;5.43;1.70;;;;;;;-144.40;100.00;60209.53;4956446;29;20035;-91
2022/10/20 08:37:50;;;;;;;6.10;1.63;;;;;;;-144.40;100.00;60209.53;4946242;29;20096;-94
2022/10/20 08:40:20;;;;;;;3.28;2.05;;;;;;;-144.40;100.00;60209.53;4921382;29;20035;-92
2022/10/20 08:42:47;;;;;;;7.03;1.95;;;;;;;-144.40;100.00;60209.53;4952288;29;20052;-93
2022/10/20 08:45:22;;;;;;;10.40;2.40;;;;;;;-144.40;100.00;60209.53;4941312;29;20092;-94
2022/10/20 08:47:51;;;;;;;5.68;1.55;;;;;;;-144.40;100.00;60209.53;4940141;29;20549;-93
2022/10/20 08:50:18;;;;;;;4.80;1.85;;;;;;;-144.40;100.00;60209.53;4939875;29;20023;-93
2022/10/20 08:52:46;;;;;;;3.17;1.45;;;;;;;-144.40;100.00;60209.53;4957141;29;20095;-93
2022/10/20 08:55:32;;;;;;;6.70;1.40;;;;;;;-144.40;100.00;60209.53;4940160;29;20020;-93
2022/10/20 08:58:05;;;;;;;2.15;1.05;;;;;;;-144.40;100.00;60209.53;4938888;29;20058;-93
2022/10/20 09:00:31;;;;;;;3.47;1.10;;;;;;;-144.40;100.00;60209.53;4956008;28;20031;-94
2022/10/20 09:03:10;;;;;;;4.13;1.38;;;;;;;-144.40;100.00;60209.53;4940124;29;20031;-94
2022/10/20 09:05:40;;;;;;;2.20;0.85;;;;;;;-144.40;100.00;60209.53;4940311;29;20031;-92
2022/10/20 09:08:06;;;;;;;2.70;0.80;;;;;;;-144.40;100.00;60209.53;4923895;29;20031;-93
2022/10/20 09:10:48;;;;;;;3.88;1.33;;;;;;;-144.40;100.00;60209.53;4937910;29;20434;-94
2022/10/20 09:13:25;;;;;;;4.30;1.40;;;;;;;-144.40;100.00;60209.53;4940043;29;20034;-94
2022/10/20 09:15:56;;;;;;;5.90;2.55;;;;;;;-144.40;100.00;60209.53;4956525;29;20036;-93
2022/10/20 09:18:22;;;;;;;3.42;1.00;;;;;;;-144.40;100.00;60209.53;4939630;29;20044;-93
2022/10/20 09:20:52;;;;;;;2.90;1.20;;;;;;;-144.40;100.00;60209.53;4939695;29;20060;-94
2022/10/20 09:23:43;;;;;;;5.03;1.65;;;;;;;-144.40;100.00;60209.53;4920099;29;20060;-93
2022/10/20 09:26:36;;;;;;;5.47;1.17;;;;;;;-144.40;100.00;60209.53;4920779;29;20048;-94
2022/10/20 09:29:08;;;;;;;7.40;2.05;;;;;;;-144.40;100.00;60209.53;4920650;29;20068;-94
2022/10/20 09:31:35;;;;;;;;;;;;;;;-144.40;100.00;60209.53;4922595;29;20032;-94
2022/10/20 09:34:03;;;;;;;5.50;1.50;;;;;;;-144.40;100.00;60209.53;4923009;29;19919;-93
2022/10/20 09:36:34;;;;;;;6.63;1.42;;;;;;;-144.40;100.00;60209.53;4944185;29;20036;-94
2022/10/20 09:39:00;;;;;;;10.10;2.40;;;;;;;-144.40;100.00;60209.53;4955135;28;20450;-92
2022/10/20 09:41:29;;;;;;;5.07;1.55;;;;;;;-144.40;100.00;60209.53;4939533;29;20040;-93
2022/10/20 09:44:22;;;;;;;5.57;1.35;;;;;;;-144.40;100.00;60209.53;4936561;29;20024;-93
2022/10/20 09:46:50;;;;;;;11.40;2.10;;;;;;;-144.40;100.00;60209.53;4917191;29;20028;-93
2022/10/20 09:49:31;;;;;;;11.68;2.30;;;;;;;-144.40;100.00;60209.53;4938920;29;20419;-93
2022/10/20 09:52:00;;;;;;;20.43;3.00;;;;;;;-144.40;100.00;60209.53;4919680;29;20028;-94
2022/10/20 09:54:26;;;;;;;13.52;1.90;;;;;;;-144.40;100.00;60209.53;4934337;29;20301;-94
2022/10/20 09:57:01;;;;;;;7.70;2.00;;;;;;;-144.40;100.00;60209.53;4918262;29;20313;-94
2022/10/20 09:59:35;;;;;;;6.95;1.60;;;;;;;-144.40;100.00;60209.53;4939326;29;20028;-93
2022/10/20 10:02:03;;;;;;;7.60;2.08;;;;;;;-144.40;100.00;60209.53;4930061;29;20026;-93
2022/10/20 10:04:40;;;;;;;6.20;1.40;;;;;;;-144.40;100.00;60209.53;4920636;29;20399;-92
2022/10/20 10:07:25;;;;;;;7.85;1.60;;;;;;;-144.40;100.00;60209.53;4937885;29;20047;-93
2022/10/20 10:10:24;;;;;;;3.25;1.30;;;;;;;-144.40;100.00;60209.53;4920265;29;20028;-93
2022/10/20 10:12:55;;;;;;;5.95;1.80;;;;;;;-144.40;100.00;60209.53;4920104;29;20036;-94
2022/10/20 10:15:33;;;;;;;6.50;1.43;;;;;;;-144.40;100.00;60209.53;4918341;29;20039;-92
2022/10/20 10:18:10;;;;;;;5.82;1.83;;;;;;;-144.40;100.00;60209.53;4919086;29;20263;-93
2022/10/20 10:20:39;;;;;;;9.05;1.88;;;;;;;-144.40;100.00;60209.53;4919282;29;20047;-94
2022/10/20 10:23:24;;;;;;;5.68;1.45;;;;;;;-144.40;100.00;60209.53;4934279;29;20044;-93
2022/10/20 10:25:51;;;;;;;6.85;1.65;;;;;;;-144.40;100.00;60209.53;4915877;29;20107;-94
2022/10/20 10:28:43;;;;;;;8.48;1.70;;;;;;;-144.40;100.00;60209.53;4931385;29;20119;-93
2022/10/20 10:31:26;;;;;;;8.90;2.17;;;;;;;-144.40;100.00;60209.53;4918872;29;20047;-93
2022/10/20 10:34:15;;;;;;;7.63;2.13;;;;;;;-144.40;100.00;60209.53;4935434;29;20444;-94
2022/10/20 10:36:41;;;;;;;6.60;2.00;;;;;;;-144.40;100.00;60209.53;4889928;29;20052;-94
2022/10/20 10:39:12;;;;;;;6.20;2.03;;;;;;;-144.40;100.00;60209.53;4934644;29;20435;-94
2022/10/20 10:41:55;;;;;;;7.43;2.10;;;;;;;-144.40;100.00;60209.53;4926787;29;20024;-95
2022/10/20 10:45:01;;;;;;;6.35;1.85;;;;;;;-144.40;100.00;60209.53;4933041;29;20039;-94
2022/10/20 10:47:30;;;;;;;7.97;2.00;;;;;;;-144.40;100.00;60209.53;4934001;29;20036;-93
2022/10/20 10:50:17;;;;;;;7.82;2.40;;;;;;;-144.40;100.00;60209.53;4922089;29;20656;-94
2022/10/20 10:53:15;;;;;;;12.02;2.30;;;;;;;-144.40;100.00;60209.53;4916717;29;20115;-94
2022/10/20 10:55:59;;;;;;;9.38;2.30;;;;;;;-144.40;100.00;60209.53;4905286;29;20050;-94
2022/10/20 10:59:03;;;;;;;6.18;1.85;;;;;;;-144.40;100.00;60209.53;4934438;29;20443;-95
2022/10/20 11:01:54;;;;;;;9.43;3.38;;;;;;;-144.40;100.00;60209.53;4905752;29;20040;-95
2022/10/20 11:04:25;;;;;;;9.93;2.03;;;;;;;-144.40;100.00;60209.53;4926863;29;20038;-96
2022/10/20 11:07:00;;;;;;;;;;;;;;;-144.40;100.00;60209.53;4926970;29;20040;-96
2022/10/20 11:09:51;;;;;;;9.27;2.10;;;;;;;-144.40;100.00;60209.53;4918851;29;19919;-95
2022/10/20 11:12:39;;;;;;;7.60;2.22;;;;;;;-144.40;100.00;60209.53;4917697;29;20111;-96
2022/10/20 11:15:17;;;;;;;7.07;1.23;;;;;;;-144.40;100.00;60209.53;4919116;29;20479;-95
2022/10/20 11:17:54;;;;;;;5.35;0.90;;;;;;;-144.40;100.00;60209.53;4918363;29;20024;-95
2022/10/20 11:20:43;;;;;;;6.70;1.30;;;;;;;-144.40;100.00;60209.53;4917208;29;20779;-95